Time;durP1;ratioP1;P1;durP2;ratioP2;P2;SDS_P1;SDS_P2;PMS_P1;PMS_P2;Temp;Humidity;BMP_temperature;BMP_pressure;BME280_temperature;BME280_humidity;BME280_pressure;Samples;Min_cycle;Max_cycle;Signal;HPM_P1;HPM_P2
2021/01/30 00:00:50;;;;;;;2.75;0.95;;;;;;;;;;4903123;29;20147;-85
2021/01/30 00:03:16;;;;;;;2.78;1.10;;;;;;;;;;4904190;29;20458;-85
2021/01/30 00:05:43;;;;;;;2.67;1.52;;;;;;;;;;4920883;29;20044;-85
2021/01/30 00:08:11;;;;;;;4.43;1.40;;;;;;;;;;4904454;29;20099;-86
2021/01/30 00:10:37;;;;;;;2.65;0.95;;;;;;;;;;4903545;29;20654;-85
2021/01/30 00:13:03;;;;;;;4.97;0.98;;;;;;;;;;4919882;29;20052;-83
2021/01/30 00:15:30;;;;;;;1.63;0.70;;;;;;;;;;4919436;29;20389;-84
2021/01/30 00:17:56;;;;;;;2.55;0.80;;;;;;;;;;4919696;29;20103;-85
2021/01/30 00:20:24;;;;;;;2.67;0.85;;;;;;;;;;4901061;29;20136;-84
2021/01/30 00:22:51;;;;;;;2.75;1.08;;;;;;;;;;4921390;29;20138;-85
2021/01/30 00:25:19;;;;;;;2.72;1.08;;;;;;;;;;4919163;29;20052;-83
2021/01/30 00:27:45;;;;;;;1.15;0.60;;;;;;;;;;4919822;29;20056;-83
2021/01/30 00:30:15;;;;;;;2.88;0.70;;;;;;;;;;4922231;29;20055;-84
2021/01/30 00:32:41;;;;;;;2.17;1.15;;;;;;;;;;4919474;29;20052;-83
2021/01/30 00:35:08;;;;;;;1.55;0.68;;;;;;;;;;4903145;29;20059;-83
2021/01/30 00:37:34;;;;;;;1.25;0.60;;;;;;;;;;4920059;29;20044;-83
2021/01/30 00:40:01;;;;;;;2.97;0.73;;;;;;;;;;4902710;29;20107;-85
2021/01/30 00:42:27;;;;;;;3.42;0.85;;;;;;;;;;4902212;29;20055;-84
2021/01/30 00:44:53;;;;;;;1.90;0.80;;;;;;;;;;4920408;29;20048;-84
2021/01/30 00:47:20;;;;;;;2.03;0.95;;;;;;;;;;4919303;29;20135;-83
2021/01/30 00:49:47;;;;;;;1.73;0.77;;;;;;;;;;4886186;29;20543;-86
2021/01/30 00:52:15;;;;;;;2.05;0.95;;;;;;;;;;4919739;29;20051;-84
2021/01/30 00:54:41;;;;;;;1.50;0.75;;;;;;;;;;4919060;29;20055;-82
2021/01/30 00:57:08;;;;;;;2.97;1.13;;;;;;;;;;4918802;29;20055;-82
2021/01/30 00:59:34;;;;;;;2.58;1.05;;;;;;;;;;4929500;29;20064;-84
2021/01/30 01:02:00;;;;;;;3.58;1.75;;;;;;;;;;4901724;29;20140;-84
2021/01/30 01:04:26;;;;;;;3.25;1.00;;;;;;;;;;4902071;29;20045;-83
2021/01/30 01:06:52;;;;;;;2.70;0.93;;;;;;;;;;4919711;29;20059;-85
2021/01/30 01:09:19;;;;;;;3.97;1.30;;;;;;;;;;4900073;29;20096;-84
2021/01/30 01:11:47;;;;;;;2.78;1.17;;;;;;;;;;4882786;29;20056;-82
2021/01/30 01:14:15;;;;;;;2.13;0.82;;;;;;;;;;4899041;29;20048;-82
2021/01/30 01:16:41;;;;;;;1.73;1.25;;;;;;;;;;4899213;29;20100;-84
2021/01/30 01:19:07;;;;;;;2.25;1.20;;;;;;;;;;4883907;29;20418;-84
2021/01/30 01:21:33;;;;;;;3.90;1.48;;;;;;;;;;4882095;29;20092;-84
2021/01/30 01:23:59;;;;;;;2.25;0.98;;;;;;;;;;4881975;29;20417;-82
2021/01/30 01:26:25;;;;;;;2.42;1.02;;;;;;;;;;4882575;29;20108;-84
2021/01/30 01:28:51;;;;;;;3.05;1.23;;;;;;;;;;4901313;29;20048;-84
2021/01/30 01:31:19;;;;;;;4.53;1.52;;;;;;;;;;4903360;29;20112;-83
2021/01/30 01:33:45;;;;;;;5.00;1.55;;;;;;;;;;4921944;29;20048;-84
2021/01/30 01:36:12;;;;;;;4.97;1.10;;;;;;;;;;4921812;29;20127;-84
2021/01/30 01:38:38;;;;;;;4.45;1.90;;;;;;;;;;4904845;29;20199;-83
2021/01/30 01:41:04;;;;;;;3.45;0.82;;;;;;;;;;4921901;29;20044;-85
2021/01/30 01:43:31;;;;;;;2.85;1.00;;;;;;;;;;4921124;29;20048;-83
2021/01/30 01:46:13;;;;;;;4.78;1.52;;;;;;;;;;4921762;29;20048;-83
2021/01/30 01:48:42;;;;;;;2.85;1.20;;;;;;;;;;4921322;29;20052;-83
2021/01/30 01:51:13;;;;;;;3.00;1.45;;;;;;;;;;4904386;29;20091;-83
2021/01/30 01:53:42;;;;;;;4.30;2.00;;;;;;;;;;4904631;29;20072;-83
2021/01/30 01:56:11;;;;;;;3.97;1.13;;;;;;;;;;4920963;29;20485;-83
2021/01/30 01:58:42;;;;;;;2.78;1.13;;;;;;;;;;4920642;29;20055;-83
2021/01/30 02:01:08;;;;;;;4.45;1.50;;;;;;;;;;4904216;29;20064;-84
2021/01/30 02:03:34;;;;;;;2.90;0.90;;;;;;;;;;4920928;29;20044;-83
2021/01/30 02:06:02;;;;;;;3.83;1.17;;;;;;;;;;4904247;29;20052;-83
2021/01/30 02:08:30;;;;;;;2.45;0.98;;;;;;;;;;4904014;29;20688;-83
2021/01/30 02:10:56;;;;;;;2.38;1.00;;;;;;;;;;4921054;29;20055;-86
2021/01/30 02:13:24;;;;;;;3.15;1.25;;;;;;;;;;4903822;29;20103;-86
2021/01/30 02:15:56;;;;;;;1.92;0.82;;;;;;;;;;4920647;29;20538;-83
2021/01/30 02:18:30;;;;;;;3.00;1.02;;;;;;;;;;4920791;29;20076;-83
2021/01/30 02:21:44;;;;;;;2.50;0.68;;;;;;;;;;4921331;29;20063;-82
2021/01/30 02:24:32;;;;;;;3.03;1.00;;;;;;;;;;4920142;29;20052;-82
2021/01/30 02:27:05;;;;;;;1.63;0.70;;;;;;;;;;4921135;29;20056;-82
2021/01/30 02:30:05;;;;;;;1.30;0.60;;;;;;;;;;4888709;29;20142;-82
2021/01/30 02:32:45;;;;;;;1.38;0.60;;;;;;;;;;4915312;29;20048;-84
2021/01/30 02:35:21;;;;;;;1.23;0.63;;;;;;;;;;4921113;29;20048;-84
2021/01/30 02:37:53;;;;;;;2.10;0.63;;;;;;;;;;4920251;29;20051;-83
2021/01/30 02:40:21;;;;;;;1.55;0.73;;;;;;;;;;4920974;29;20048;-82
2021/01/30 02:42:51;;;;;;;4.18;1.20;;;;;;;;;;4920124;29;20056;-87
2021/01/30 02:45:19;;;;;;;1.20;0.50;;;;;;;;;;4902208;29;20048;-84
2021/01/30 02:47:49;;;;;;;1.60;0.70;;;;;;;;;;4903684;29;20051;-83
2021/01/30 02:50:20;;;;;;;2.60;1.05;;;;;;;;;;4920194;29;20048;-84
2021/01/30 02:52:48;;;;;;;3.10;1.05;;;;;;;;;;4903270;29;20052;-83
2021/01/30 02:55:16;;;;;;;3.65;1.00;;;;;;;;;;4920526;29;20059;-83
2021/01/30 02:57:43;;;;;;;2.10;0.93;;;;;;;;;;4920728;29;20048;-83
2021/01/30 03:00:12;;;;;;;3.55;1.20;;;;;;;;;;4920043;29;20120;-83
2021/01/30 03:02:38;;;;;;;2.85;1.00;;;;;;;;;;4919890;29;20055;-83
2021/01/30 03:05:08;;;;;;;2.38;1.00;;;;;;;;;;4920104;29;20085;-83
2021/01/30 03:07:44;;;;;;;2.47;0.90;;;;;;;;;;4920093;29;20103;-83
2021/01/30 03:10:17;;;;;;;2.45;0.80;;;;;;;;;;4920996;29;20079;-84
2021/01/30 03:12:51;;;;;;;1.13;0.65;;;;;;;;;;4920107;29;20057;-83
2021/01/30 03:15:22;;;;;;;1.25;0.70;;;;;;;;;;4920150;29;20056;-84
2021/01/30 03:17:49;;;;;;;1.48;0.55;;;;;;;;;;4920586;29;20056;-87
2021/01/30 03:20:16;;;;;;;1.20;0.57;;;;;;;;;;4920013;29;20560;-83
2021/01/30 03:22:43;;;;;;;2.20;0.60;;;;;;;;;;4903307;29;20100;-83
2021/01/30 03:25:12;;;;;;;2.10;0.63;;;;;;;;;;4903183;29;20098;-83
2021/01/30 03:27:39;;;;;;;1.33;0.70;;;;;;;;;;4919681;29;20116;-83
2021/01/30 03:30:08;;;;;;;1.63;0.55;;;;;;;;;;4919939;29;20047;-84
2021/01/30 03:32:34;;;;;;;1.60;0.68;;;;;;;;;;4919565;29;20060;-83
2021/01/30 03:35:03;;;;;;;2.45;0.75;;;;;;;;;;4920395;29;20048;-84
2021/01/30 03:37:29;;;;;;;1.65;0.63;;;;;;;;;;4920216;29;20071;-84
2021/01/30 03:39:55;;;;;;;2.90;0.70;;;;;;;;;;4918997;29;20590;-84
2021/01/30 03:42:21;;;;;;;3.70;0.60;;;;;;;;;;4919706;29;20048;-83
2021/01/30 03:44:48;;;;;;;4.72;0.88;;;;;;;;;;4920728;29;20377;-83
2021/01/30 03:47:14;;;;;;;2.15;0.80;;;;;;;;;;4920120;29;20052;-83
2021/01/30 03:49:40;;;;;;;1.65;0.55;;;;;;;;;;4919914;29;20076;-83
2021/01/30 03:52:06;;;;;;;1.88;0.70;;;;;;;;;;4919989;29;20052;-85
2021/01/30 03:54:32;;;;;;;2.67;0.90;;;;;;;;;;4902946;29;20056;-84
2021/01/30 03:56:58;;;;;;;3.10;0.80;;;;;;;;;;4887664;29;20120;-83
2021/01/30 03:59:24;;;;;;;3.08;0.98;;;;;;;;;;4919687;29;20048;-83
2021/01/30 04:01:51;;;;;;;2.78;0.95;;;;;;;;;;4919831;29;20094;-83
2021/01/30 04:04:17;;;;;;;1.77;0.70;;;;;;;;;;4902999;29;20076;-84
2021/01/30 04:06:47;;;;;;;3.50;1.10;;;;;;;;;;4919588;29;20064;-84
2021/01/30 04:09:13;;;;;;;5.63;1.13;;;;;;;;;;4919815;29;20155;-83
2021/01/30 04:11:41;;;;;;;2.53;0.90;;;;;;;;;;4902832;29;20512;-84
2021/01/30 04:14:07;;;;;;;1.95;0.60;;;;;;;;;;4919224;29;20048;-83
2021/01/30 04:16:33;;;;;;;3.88;0.90;;;;;;;;;;4919456;29;20052;-83
2021/01/30 04:18:59;;;;;;;3.10;0.70;;;;;;;;;;4902307;29;20058;-83
2021/01/30 04:21:25;;;;;;;4.05;1.05;;;;;;;;;;4919853;29;20047;-84
2021/01/30 04:23:51;;;;;;;5.20;0.90;;;;;;;;;;4919205;29;20048;-83
2021/01/30 04:26:19;;;;;;;2.83;0.77;;;;;;;;;;4918400;29;20048;-83
2021/01/30 04:28:45;;;;;;;3.45;1.67;;;;;;;;;;4898868;29;20045;-83
2021/01/30 04:31:11;;;;;;;4.90;1.05;;;;;;;;;;4868362;29;20160;-83
2021/01/30 04:33:37;;;;;;;2.50;0.90;;;;;;;;;;4900357;29;20496;-83
2021/01/30 04:36:06;;;;;;;4.03;1.20;;;;;;;;;;4882484;29;20524;-83
2021/01/30 04:38:32;;;;;;;5.00;1.23;;;;;;;;;;4900328;29;20470;-83
2021/01/30 04:41:02;;;;;;;6.53;1.23;;;;;;;;;;4899840;29;20044;-84
2021/01/30 04:43:33;;;;;;;6.57;1.13;;;;;;;;;;4900621;29;20051;-83
2021/01/30 04:46:07;;;;;;;5.78;1.48;;;;;;;;;;4900064;29;20402;-83
2021/01/30 04:48:42;;;;;;;6.97;1.25;;;;;;;;;;4900464;29;20108;-83
2021/01/30 04:51:14;;;;;;;5.38;1.63;;;;;;;;;;4884952;29;20061;-85
2021/01/30 04:53:54;;;;;;;3.47;0.93;;;;;;;;;;4900568;29;20056;-83
2021/01/30 04:56:27;;;;;;;3.40;1.13;;;;;;;;;;4900261;29;20081;-83
2021/01/30 04:59:02;;;;;;;5.32;1.10;;;;;;;;;;4899801;29;20055;-83
2021/01/30 05:01:32;;;;;;;7.15;1.40;;;;;;;;;;4900085;29;20057;-83
2021/01/30 05:04:07;;;;;;;5.10;1.00;;;;;;;;;;4900306;29;20505;-83
2021/01/30 05:06:50;;;;;;;4.57;1.00;;;;;;;;;;4906251;29;20045;-84
2021/01/30 05:09:22;;;;;;;7.47;1.40;;;;;;;;;;4904851;29;20049;-84
2021/01/30 05:11:56;;;;;;;5.43;1.60;;;;;;;;;;4921067;29;20051;-83
2021/01/30 05:14:26;;;;;;;6.97;1.30;;;;;;;;;;4925113;29;20048;-83
2021/01/30 05:17:01;;;;;;;5.57;1.35;;;;;;;;;;4924917;29;20075;-83
2021/01/30 05:19:30;;;;;;;5.17;1.30;;;;;;;;;;4925239;29;20511;-85
2021/01/30 05:21:59;;;;;;;9.98;1.58;;;;;;;;;;4925046;29;20292;-83
2021/01/30 05:24:26;;;;;;;6.70;1.50;;;;;;;;;;4925482;29;20048;-85
2021/01/30 05:27:11;;;;;;;7.45;2.30;;;;;;;;;;4924626;29;20052;-83
2021/01/30 05:29:42;;;;;;;9.57;1.63;;;;;;;;;;4925269;29;20052;-84
2021/01/30 05:32:14;;;;;;;7.88;2.00;;;;;;;;;;4925103;29;20048;-84
2021/01/30 05:34:45;;;;;;;5.22;1.33;;;;;;;;;;4908448;29;20108;-83
2021/01/30 05:37:14;;;;;;;7.47;1.55;;;;;;;;;;4924923;29;20051;-84
2021/01/30 05:39:49;;;;;;;5.13;1.50;;;;;;;;;;4924714;29;20047;-84
2021/01/30 05:42:22;;;;;;;8.52;2.65;;;;;;;;;;4925366;29;20437;-84
2021/01/30 05:44:52;;;;;;;9.20;1.52;;;;;;;;;;4925186;29;20083;-85
2021/01/30 05:47:21;;;;;;;4.80;1.77;;;;;;;;;;4925175;29;20052;-83
2021/01/30 05:49:57;;;;;;;9.43;3.15;;;;;;;;;;4924493;29;20051;-83
2021/01/30 05:52:27;;;;;;;9.07;2.13;;;;;;;;;;4925152;29;20063;-83
2021/01/30 05:54:53;;;;;;;6.13;1.50;;;;;;;;;;4923429;29;20059;-83
2021/01/30 05:57:19;;;;;;;8.27;1.63;;;;;;;;;;4923052;29;20048;-83
2021/01/30 05:59:48;;;;;;;4.85;1.35;;;;;;;;;;4922924;29;20051;-84
2021/01/30 06:02:16;;;;;;;5.43;1.50;;;;;;;;;;4925455;29;20063;-84
2021/01/30 06:04:42;;;;;;;6.95;1.75;;;;;;;;;;4927320;29;20048;-86
2021/01/30 06:07:25;;;;;;;6.30;1.52;;;;;;;;;;4926662;29;20052;-86
2021/01/30 06:09:51;;;;;;;6.65;1.50;;;;;;;;;;4927170;29;20052;-84
2021/01/30 06:12:19;;;;;;;5.93;1.25;;;;;;;;;;4925979;29;20048;-85
2021/01/30 06:14:46;;;;;;;6.55;1.23;;;;;;;;;;4927748;29;20428;-85
2021/01/30 06:17:17;;;;;;;4.93;1.10;;;;;;;;;;4924076;29;20091;-87
2021/01/30 06:19:43;;;;;;;7.95;1.70;;;;;;;;;;4905695;29;20048;-85
2021/01/30 06:22:15;;;;;;;8.65;1.50;;;;;;;;;;4904844;29;20075;-86
2021/01/30 06:24:45;;;;;;;8.18;2.20;;;;;;;;;;4905546;29;20060;-85
2021/01/30 06:27:25;;;;;;;8.38;1.67;;;;;;;;;;4873661;29;20057;-84
2021/01/30 06:29:54;;;;;;;8.02;1.10;;;;;;;;;;4905601;29;20104;-85
2021/01/30 06:32:26;;;;;;;5.53;1.60;;;;;;;;;;4905217;29;20056;-84
2021/01/30 06:34:55;;;;;;;6.43;1.38;;;;;;;;;;4906298;29;20048;-84
2021/01/30 06:37:35;;;;;;;6.22;1.73;;;;;;;;;;4905433;29;20059;-83
2021/01/30 06:40:14;;;;;;;4.55;1.60;;;;;;;;;;4905452;29;20433;-84
2021/01/30 06:42:42;;;;;;;9.02;2.08;;;;;;;;;;4905834;29;20052;-85
2021/01/30 06:45:09;;;;;;;5.95;2.10;;;;;;;;;;4872314;29;20059;-84
2021/01/30 06:47:46;;;;;;;7.90;1.50;;;;;;;;;;4904793;29;20513;-83
2021/01/30 06:50:16;;;;;;;;;;;;;;;;;;4888365;29;20103;-85
2021/01/30 06:52:42;;;;;;;4.18;2.58;;;;;;;;;;4888091;29;19982;-84
2021/01/30 06:55:11;;;;;;;5.63;1.60;;;;;;;;;;4904961;29;20048;-86
2021/01/30 06:57:41;;;;;;;5.72;1.58;;;;;;;;;;4905018;29;20049;-85
2021/01/30 07:00:21;;;;;;;5.07;1.60;;;;;;;;;;4905156;29;20504;-84
2021/01/30 07:02:49;;;;;;;5.60;1.50;;;;;;;;;;4905280;29;20076;-84
2021/01/30 07:05:25;;;;;;;6.47;1.58;;;;;;;;;;4888744;29;20052;-85
2021/01/30 07:07:54;;;;;;;;;;;;;;;;;;4906002;29;20053;-86
2021/01/30 07:10:28;;;;;;;5.68;2.17;;;;;;;;;;4904930;29;19927;-85
2021/01/30 07:13:05;;;;;;;4.85;1.50;;;;;;;;;;4904878;29;20057;-85
2021/01/30 07:15:32;;;;;;;11.15;2.22;;;;;;;;;;4906107;29;20048;-86
2021/01/30 07:18:09;;;;;;;4.65;1.85;;;;;;;;;;4912917;29;20052;-86
2021/01/30 07:20:45;;;;;;;7.78;2.80;;;;;;;;;;4924446;29;20052;-84
2021/01/30 07:23:12;;;;;;;;;;;;;;;;;;4924462;29;20489;-85
2021/01/30 07:25:50;;;;;;;7.65;3.22;;;;;;;;;;4924090;29;19930;-86
2021/01/30 07:28:22;;;;;;;6.80;2.38;;;;;;;;;;4924057;29;20055;-85
2021/01/30 07:30:52;;;;;;;8.05;1.98;;;;;;;;;;4906864;29;20063;-84
2021/01/30 07:33:26;;;;;;;6.90;1.50;;;;;;;;;;4924283;29;20052;-86
2021/01/30 07:35:58;;;;;;;4.18;1.33;;;;;;;;;;4923860;29;20131;-86
2021/01/30 07:38:30;;;;;;;6.82;1.45;;;;;;;;;;4923764;29;20052;-85
2021/01/30 07:40:59;;;;;;;7.90;2.58;;;;;;;;;;4923558;29;20052;-85
2021/01/30 07:43:26;;;;;;;6.70;1.50;;;;;;;;;;4923109;29;20107;-86
2021/01/30 07:46:00;;;;;;;5.78;1.60;;;;;;;;;;4891489;29;20496;-85
2021/01/30 07:48:29;;;;;;;6.40;1.65;;;;;;;;;;4905761;29;20079;-85
2021/01/30 07:51:00;;;;;;;8.43;2.13;;;;;;;;;;4923434;29;20055;-86
2021/01/30 07:53:28;;;;;;;6.35;1.40;;;;;;;;;;4925477;29;20496;-86
2021/01/30 07:56:07;;;;;;;5.93;1.48;;;;;;;;;;4942494;29;20055;-84
2021/01/30 07:58:42;;;;;;;2.78;0.95;;;;;;;;;;4942954;29;20055;-86
2021/01/30 08:01:18;;;;;;;8.98;1.70;;;;;;;;;;4937976;29;20055;-85
2021/01/30 08:04:08;;;;;;;7.93;1.75;;;;;;;;;;4929982;29;20052;-86
2021/01/30 08:06:40;;;;;;;8.30;1.80;;;;;;;;;;4916937;29;20126;-84
2021/01/30 08:09:15;;;;;;;11.02;3.15;;;;;;;;;;4931406;29;20117;-86
2021/01/30 08:11:43;;;;;;;9.50;2.28;;;;;;;;;;4925390;29;20056;-85
2021/01/30 08:14:21;;;;;;;10.50;2.30;;;;;;;;;;4930744;29;20059;-86
2021/01/30 08:16:55;;;;;;;14.45;2.95;;;;;;;;;;4942441;29;20058;-84
2021/01/30 08:19:31;;;;;;;10.65;2.33;;;;;;;;;;4942445;29;20047;-86
2021/01/30 08:22:00;;;;;;;7.53;2.67;;;;;;;;;;4942885;29;20628;-85
2021/01/30 08:24:29;;;;;;;7.93;2.13;;;;;;;;;;4933360;29;20112;-86
2021/01/30 08:26:59;;;;;;;8.52;2.72;;;;;;;;;;4911370;29;20049;-86
2021/01/30 08:29:28;;;;;;;8.85;2.17;;;;;;;;;;4914198;29;20072;-86
2021/01/30 08:31:56;;;;;;;10.30;2.17;;;;;;;;;;4922629;29;20076;-85
2021/01/30 11:07:22;;;;;;;8.57;1.80;;;;;;;;;;5255043;23;20076;-85
2021/01/30 11:13:25;;;;;;;10.52;2.22;;;;;;;;;;4911353;23;20059;-86
2021/01/30 11:16:05;;;;;;;8.73;2.30;;;;;;;;;;4902035;29;20048;-83
2021/01/30 11:18:37;;;;;;;5.68;1.98;;;;;;;;;;4905102;29;20045;-84
2021/01/30 11:21:05;;;;;;;9.00;1.60;;;;;;;;;;4883627;29;20090;-85
2021/01/30 11:23:46;;;;;;;6.35;1.80;;;;;;;;;;4904773;29;20049;-87
2021/01/30 11:26:15;;;;;;;9.75;2.40;;;;;;;;;;4906329;29;20056;-83
2021/01/30 15:28:45;;;;;;;4.72;2.50;;;;;;;;;;5130714;23;20053;-82
2021/01/30 15:31:18;;;;;;;4.88;3.75;;;;;;;;;;4864834;29;20056;-85
2021/01/30 15:34:04;;;;;;;12.98;7.53;;;;;;;;;;4876984;29;20060;-82
2021/01/30 15:36:30;;;;;;;17.77;10.85;;;;;;;;;;4882570;29;20049;-81
2021/01/30 15:38:56;;;;;;;10.80;6.82;;;;;;;;;;4883439;29;20048;-81
2021/01/30 15:41:22;;;;;;;6.82;4.82;;;;;;;;;;4884772;29;20049;-82
2021/01/30 15:43:50;;;;;;;5.50;3.22;;;;;;;;;;4882881;29;20056;-81
2021/01/30 15:46:16;;;;;;;5.78;3.88;;;;;;;;;;4884554;29;20060;-82
2021/01/30 16:06:19;;;;;;;7.55;4.13;;;;;;;;;;4903554;29;20390;-82
2021/01/30 16:22:55;;;;;;;5.80;2.30;;;;;;;;;;5186647;23;20409;-82
2021/01/30 16:25:43;;;;;;;3.58;1.85;;;;;;;;;;4904020;29;20049;-82
2021/01/30 16:28:32;;;;;;;3.28;1.45;;;;;;;;;;4904435;29;20092;-82
2021/01/30 16:30:58;;;;;;;3.08;1.55;;;;;;;;;;4905429;29;20079;-83
2021/01/30 16:33:28;;;;;;;3.42;1.90;;;;;;;;;;4884168;29;20056;-84
2021/01/30 16:35:54;;;;;;;6.72;2.63;;;;;;;;;;4913055;29;20056;-83
2021/01/30 16:38:21;;;;;;;7.22;3.67;;;;;;;;;;4887136;29;20056;-83
2021/01/30 16:40:47;;;;;;;10.75;3.00;;;;;;;;;;4917308;29;20048;-83
2021/01/30 16:43:14;;;;;;;4.03;2.47;;;;;;;;;;4903682;29;20056;-83
2021/01/30 16:45:43;;;;;;;3.83;2.60;;;;;;;;;;4920730;29;20099;-83
2021/01/30 16:48:09;;;;;;;4.22;2.55;;;;;;;;;;4920154;29;20080;-82
2021/01/30 16:50:36;;;;;;;7.82;3.67;;;;;;;;;;4921194;29;20508;-82
2021/01/30 16:53:02;;;;;;;9.30;3.97;;;;;;;;;;4917108;29;20059;-83
2021/01/30 16:55:29;;;;;;;6.25;3.38;;;;;;;;;;4920576;29;20393;-82
2021/01/30 16:57:56;;;;;;;4.68;3.47;;;;;;;;;;4921284;29;20103;-83
2021/01/30 17:00:25;;;;;;;7.28;4.65;;;;;;;;;;4920905;29;20052;-82
2021/01/30 17:02:51;;;;;;;6.75;4.63;;;;;;;;;;4908227;29;20048;-82
2021/01/30 17:05:17;;;;;;;7.22;4.28;;;;;;;;;;4912304;29;20080;-86
2021/01/30 17:07:43;;;;;;;5.22;3.10;;;;;;;;;;4900531;29;20056;-82
2021/01/30 17:10:10;;;;;;;3.15;1.90;;;;;;;;;;4901136;29;20136;-83
2021/01/30 17:12:37;;;;;;;3.53;1.67;;;;;;;;;;4916709;29;20052;-84
2021/01/30 17:15:05;;;;;;;2.60;1.77;;;;;;;;;;4909368;29;20053;-85
2021/01/30 17:17:32;;;;;;;4.22;2.60;;;;;;;;;;4901780;29;20056;-82
2021/01/30 17:19:58;;;;;;;4.50;3.10;;;;;;;;;;4900108;29;20052;-82
2021/01/30 17:22:24;;;;;;;4.22;2.55;;;;;;;;;;4900401;29;20135;-83
2021/01/30 17:24:50;;;;;;;6.47;3.15;;;;;;;;;;4901486;29;20048;-82
2021/01/30 17:27:17;;;;;;;5.78;3.38;;;;;;;;;;4901616;29;20060;-82
2021/01/30 17:29:43;;;;;;;7.15;3.67;;;;;;;;;;4901425;29;20044;-82
2021/01/30 17:32:09;;;;;;;8.65;4.75;;;;;;;;;;4900925;29;20052;-82
2021/01/30 17:34:35;;;;;;;11.48;6.18;;;;;;;;;;4901158;29;20565;-82
2021/01/30 17:37:12;;;;;;;10.52;5.22;;;;;;;;;;4901293;29;20087;-82
2021/01/30 18:40:41;;;;;;;7.65;3.97;;;;;;;;;;4902285;29;20039;-82
2021/01/30 18:43:10;;;;;;;7.32;3.72;;;;;;;;;;4885133;29;20060;-81
2021/01/30 18:45:38;;;;;;;6.38;3.40;;;;;;;;;;4884406;29;20079;-81
2021/01/30 18:58:32;;;;;;;4.43;2.40;;;;;;;;;;4882741;29;20050;-81
2021/01/30 19:00:58;;;;;;;;;;;;;;;;;;4900458;29;20052;-86
2021/01/30 19:03:25;;;;;;;5.63;3.27;;;;;;;;;;4898848;29;20018;-83
2021/01/30 19:05:52;;;;;;;5.00;3.40;;;;;;;;;;4888512;29;20048;-83
2021/01/30 19:08:18;;;;;;;5.03;3.38;;;;;;;;;;4891564;29;20049;-84
2021/01/30 19:10:46;;;;;;;5.03;3.00;;;;;;;;;;4895964;29;20200;-84
2021/01/30 19:13:12;;;;;;;6.00;3.15;;;;;;;;;;4900219;29;20048;-84
2021/01/30 19:15:39;;;;;;;6.15;3.42;;;;;;;;;;4910429;29;20056;-82
2021/01/30 19:18:06;;;;;;;7.05;4.60;;;;;;;;;;4919770;29;20463;-82
2021/01/30 19:20:36;;;;;;;6.20;3.78;;;;;;;;;;4920246;29;20125;-82
2021/01/30 19:23:02;;;;;;;6.78;3.67;;;;;;;;;;4914600;29;20051;-81
2021/01/30 19:25:28;;;;;;;5.10;2.92;;;;;;;;;;4900097;29;20493;-83
2021/01/30 19:27:54;;;;;;;5.13;3.40;;;;;;;;;;4900542;29;20049;-82
2021/01/30 19:30:23;;;;;;;4.85;3.10;;;;;;;;;;4900399;29;20053;-82
2021/01/30 19:32:50;;;;;;;12.57;6.75;;;;;;;;;;4899954;29;20056;-83
2021/01/30 19:35:16;;;;;;;6.80;4.10;;;;;;;;;;4900552;29;20484;-82
2021/01/30 19:37:42;;;;;;;6.63;4.07;;;;;;;;;;4901367;29;20044;-82
2021/01/30 19:40:09;;;;;;;5.20;3.10;;;;;;;;;;4901834;29;20049;-82
2021/01/30 19:42:35;;;;;;;6.18;3.97;;;;;;;;;;4885006;29;20049;-83
2021/01/30 19:45:03;;;;;;;6.00;4.07;;;;;;;;;;4901798;29;20060;-82
2021/01/30 19:47:29;;;;;;;5.57;2.88;;;;;;;;;;4901387;29;20108;-83
2021/01/30 19:49:56;;;;;;;5.90;3.50;;;;;;;;;;4901951;29;20057;-82
2021/01/30 19:52:22;;;;;;;7.03;3.60;;;;;;;;;;4901355;29;20052;-83
2021/01/30 19:54:48;;;;;;;4.68;3.00;;;;;;;;;;4903052;29;20052;-84
2021/01/30 19:57:14;;;;;;;6.47;3.47;;;;;;;;;;4919249;29;20135;-83
2021/01/30 19:59:40;;;;;;;4.03;2.75;;;;;;;;;;4920323;29;20060;-82
2021/01/30 20:20:22;;;;;;;5.82;3.50;;;;;;;;;;4880781;29;20061;-82
2021/01/30 20:22:48;;;;;;;8.05;4.47;;;;;;;;;;4880684;29;20132;-82
2021/01/30 20:25:16;;;;;;;9.48;5.82;;;;;;;;;;4880987;29;20056;-82
2021/01/30 20:27:42;;;;;;;8.85;4.40;;;;;;;;;;4881350;29;20056;-82
2021/01/30 20:30:12;;;;;;;5.93;4.28;;;;;;;;;;4881437;29;20049;-81
2021/01/30 20:32:38;;;;;;;4.95;3.92;;;;;;;;;;4880811;29;20056;-83
2021/01/30 20:35:04;;;;;;;4.75;3.22;;;;;;;;;;4881920;29;20053;-81
2021/01/30 20:37:31;;;;;;;7.18;3.80;;;;;;;;;;4881293;29;20053;-81
2021/01/30 20:39:57;;;;;;;5.90;4.38;;;;;;;;;;4881683;29;20053;-82
2021/01/30 20:42:23;;;;;;;6.28;3.70;;;;;;;;;;4880978;29;20049;-81
2021/01/30 20:44:49;;;;;;;6.32;4.30;;;;;;;;;;4882305;29;20053;-81
2021/01/30 20:47:27;;;;;;;5.72;3.75;;;;;;;;;;4882353;29;20108;-81
2021/01/30 20:50:06;;;;;;;5.15;3.28;;;;;;;;;;4881857;29;20128;-82
2021/01/30 20:52:32;;;;;;;7.55;4.78;;;;;;;;;;4882243;29;20049;-82
2021/01/30 20:54:59;;;;;;;6.45;3.53;;;;;;;;;;4881914;29;20052;-82
2021/01/30 20:58:19;;;;;;;5.22;2.55;;;;;;;;;;4882921;29;20383;-82
2021/01/30 21:01:12;;;;;;;5.80;2.80;;;;;;;;;;4881828;29;20189;-82
2021/01/30 21:03:38;;;;;;;5.50;2.65;;;;;;;;;;4881258;29;20458;-82
2021/01/30 21:06:05;;;;;;;5.38;2.97;;;;;;;;;;4881448;29;20049;-81
2021/01/30 21:12:03;;;;;;;5.47;3.28;;;;;;;;;;4882135;29;20055;-81
2021/01/30 21:16:57;;;;;;;7.05;4.75;;;;;;;;;;4880416;29;20061;-81
2021/01/30 21:19:23;;;;;;;7.22;4.88;;;;;;;;;;4880857;29;20485;-81
2021/01/30 21:25:17;;;;;;;6.40;4.35;;;;;;;;;;4881532;29;20044;-83
2021/01/30 21:27:45;;;;;;;6.43;4.55;;;;;;;;;;4881645;29;20185;-81
2021/01/30 21:30:13;;;;;;;7.57;4.57;;;;;;;;;;4882412;29;20056;-82
2021/01/30 21:33:29;;;;;;;7.57;5.15;;;;;;;;;;4881745;29;20068;-82
2021/01/30 21:36:18;;;;;;;9.05;5.80;;;;;;;;;;4873798;29;20113;-81
2021/01/30 21:38:45;;;;;;;11.57;7.80;;;;;;;;;;4862492;29;20053;-81
2021/01/30 21:41:13;;;;;;;14.70;9.18;;;;;;;;;;4862381;29;20120;-83
2021/01/30 22:02:30;;;;;;;10.35;7.38;;;;;;;;;;4882499;29;20052;-81
2021/01/30 22:04:56;;;;;;;11.85;7.82;;;;;;;;;;4867941;29;20053;-81
2021/01/30 23:27:57;;;;;;;10.23;6.30;;;;;;;;;;4902180;29;20087;-82
